Time;durP1;ratioP1;P1;durP2;ratioP2;P2;SDS_P1;SDS_P2;PMS_P1;PMS_P2;Temp;Humidity;BMP_temperature;BMP_pressure;BME280_temperature;BME280_humidity;BME280_pressure;Samples;Min_cycle;Max_cycle;Signal;HPM_P1;HPM_P2
2022/09/19 00:01:36;;;;;;;;;;;;;;;;;;5058377;28;20296;-66
2022/09/19 00:04:02;;;;;;;;;;;;;;;;;;5038448;28;20382;-65
2022/09/19 00:06:27;;;;;;;;;;;;;;;;;;5037197;28;19916;-63
2022/09/19 00:08:52;;;;;;;;;;;;;;;;;;5042531;28;20003;-64
2022/09/19 00:11:19;;;;;;;;;;;;;;;;;;5035026;28;19960;-63
2022/09/19 00:13:45;;;;;;;;;;;;;;;;;;5043317;28;19935;-65
2022/09/19 00:16:10;;;;;;;;;;;;;;;;;;5047530;28;19912;-64
2022/09/19 00:18:35;;;;;;;;;;;;;;;;;;5049448;28;19931;-64
2022/09/19 00:21:00;;;;;;;;;;;;;;;;;;5073988;28;19912;-64
2022/09/19 00:26:09;;;;;;;;;;;;;;;;;;5060821;28;19920;-64
2022/09/19 00:28:34;;;;;;;;;;;;;;;;;;5041515;28;19912;-65
2022/09/19 00:31:00;;;;;;;;;;;;;;;;;;5056709;28;19913;-65
2022/09/19 00:33:30;;;;;;;;;;;;;;;;;;5066970;28;19916;-64
2022/09/19 00:35:55;;;;;;;;;;;;;;;;;;5064984;28;19920;-64
2022/09/19 00:38:21;;;;;;;;;;;;;;;;;;5059470;28;19916;-64
2022/09/19 00:40:46;;;;;;;;;;;;;;;;;;5056624;28;19924;-63
2022/09/19 00:43:11;;;;;;;;;;;;;;;;;;5065916;28;19942;-63
2022/09/19 00:45:36;;;;;;;;;;;;;;;;;;5062597;28;20410;-63
2022/09/19 00:48:01;;;;;;;;;;;;;;;;;;5071878;28;19920;-64
2022/09/19 00:50:27;;;;;;;;;;;;;;;;;;5069840;28;19920;-63
2022/09/19 00:52:52;;;;;;;;;;;;;;;;;;5069870;28;19909;-64
2022/09/19 00:55:17;;;;;;;;;;;;;;;;;;5062635;28;19932;-64
2022/09/19 00:57:43;;;;;;;;;;;;;;;;;;5059778;28;19917;-64
2022/09/19 01:00:08;;;;;;;;;;;;;;;;;;5061514;28;20392;-64
2022/09/19 01:02:33;;;;;;;;;;;;;;;;;;5064460;28;19929;-64
2022/09/19 01:04:58;;;;;;;;;;;;;;;;;;5062912;28;19912;-64
2022/09/19 01:07:28;;;;;;;;;;;;;;;;;;5063020;28;20432;-64
2022/09/19 01:09:53;;;;;;;;;;;;;;;;;;5061598;28;19919;-64
2022/09/19 01:12:18;;;;;;;;;;;;;;;;;;5053351;28;19999;-64
2022/09/19 01:14:43;;;;;;;;;;;;;;;;;;5061102;28;19912;-64
2022/09/19 01:17:08;;;;;;;;;;;;;;;;;;5067610;28;20012;-63
2022/09/19 01:19:35;;;;;;;;;;;;;;;;;;5086938;28;20026;-64
2022/09/19 01:22:00;;;;;;;;;;;;;;;;;;5084575;28;19951;-63
2022/09/19 01:24:25;;;;;;;;;;;;;;;;;;5066772;28;20351;-64
2022/09/19 01:26:50;;;;;;;;;;;;;;;;;;5064249;28;20292;-64
2022/09/19 01:29:15;;;;;;;;;;;;;;;;;;5076970;28;20010;-64
2022/09/19 01:31:41;;;;;;;;;;;;;;;;;;5080985;28;19908;-63
2022/09/19 01:34:06;;;;;;;;;;;;;;;;;;5083908;28;20448;-64
2022/09/19 01:36:32;;;;;;;;;;;;;;;;;;5078335;28;19916;-64
2022/09/19 01:38:57;;;;;;;;;;;;;;;;;;5089305;28;19932;-64
2022/09/19 01:41:22;;;;;;;;;;;;;;;;;;5082790;28;19912;-64
2022/09/19 01:43:47;;;;;;;;;;;;;;;;;;5062960;28;19916;-65
2022/09/19 01:46:12;;;;;;;;;;;;;;;;;;5074990;28;19912;-64
2022/09/19 01:48:37;;;;;;;;;;;;;;;;;;5078453;28;19912;-63
2022/09/19 01:51:03;;;;;;;;;;;;;;;;;;5086770;28;19920;-64
2022/09/19 01:53:28;;;;;;;;;;;;;;;;;;5062728;28;19919;-64
2022/09/19 01:55:53;;;;;;;;;;;;;;;;;;5064021;28;20264;-65
2022/09/19 01:58:18;;;;;;;;;;;;;;;;;;5058414;28;20014;-65
2022/09/19 02:00:43;;;;;;;;;;;;;;;;;;5069288;28;19912;-63
2022/09/19 02:03:08;;;;;;;;;;;;;;;;;;5071785;28;19970;-66
2022/09/19 02:05:35;;;;;;;;;;;;;;;;;;5084449;28;19920;-62
2022/09/19 02:08:00;;;;;;;;;;;;;;;;;;5067872;28;19916;-64
2022/09/19 02:10:25;;;;;;;;;;;;;;;;;;5085390;28;19965;-64
2022/09/19 02:12:52;;;;;;;;;;;;;;;;;;5072419;28;20384;-64
2022/09/19 02:15:17;;;;;;;;;;;;;;;;;;5078208;28;19970;-64
2022/09/19 02:17:44;;;;;;;;;;;;;;;;;;5058950;28;20360;-64
2022/09/19 02:20:09;;;;;;;;;;;;;;;;;;5081775;28;19919;-63
2022/09/19 02:22:36;;;;;;;;;;;;;;;;;;5081386;28;20373;-64
2022/09/19 02:25:01;;;;;;;;;;;;;;;;;;5064078;28;20339;-64
2022/09/19 02:27:26;;;;;;;;;;;;;;;;;;5074670;28;19942;-64
2022/09/19 02:29:51;;;;;;;;;;;;;;;;;;5079911;28;19913;-64
2022/09/19 02:32:17;;;;;;;;;;;;;;;;;;5077616;28;20295;-65
2022/09/19 02:34:43;;;;;;;;;;;;;;;;;;5089591;28;20423;-65
2022/09/19 02:37:08;;;;;;;;;;;;;;;;;;5066927;28;19916;-64
2022/09/19 02:39:35;;;;;;;;;;;;;;;;;;5085089;28;20028;-65
2022/09/19 02:42:00;;;;;;;;;;;;;;;;;;5072325;28;19920;-64
2022/09/19 02:44:25;;;;;;;;;;;;;;;;;;5080896;28;19999;-65
2022/09/19 02:46:51;;;;;;;;;;;;;;;;;;5060661;28;19920;-65
2022/09/19 02:49:16;;;;;;;;;;;;;;;;;;5079001;28;20466;-65
2022/09/19 02:51:42;;;;;;;;;;;;;;;;;;5073254;28;20346;-65
2022/09/19 02:54:07;;;;;;;;;;;;;;;;;;5066968;28;19937;-65
2022/09/19 02:56:34;;;;;;;;;;;;;;;;;;5070307;28;20019;-65
2022/09/19 02:58:59;;;;;;;;;;;;;;;;;;5087014;28;19916;-64
2022/09/19 03:01:24;;;;;;;;;;;;;;;;;;5083212;28;19927;-65
2022/09/19 03:06:34;;;;;;;;;;;;;;;;;;5087714;28;19919;-64
2022/09/19 03:08:59;;;;;;;;;;;;;;;;;;5057201;28;19920;-65
2022/09/19 03:11:24;;;;;;;;;;;;;;;;;;5078562;28;19966;-65
2022/09/19 03:13:49;;;;;;;;;;;;;;;;;;5061163;28;19912;-64
2022/09/19 03:16:14;;;;;;;;;;;;;;;;;;5076902;28;19984;-65
2022/09/19 03:18:39;;;;;;;;;;;;;;;;;;5078497;28;19928;-65
2022/09/19 03:21:05;;;;;;;;;;;;;;;;;;5068852;28;19935;-65
2022/09/19 03:23:30;;;;;;;;;;;;;;;;;;5060392;28;20076;-65
2022/09/19 03:25:55;;;;;;;;;;;;;;;;;;5052803;28;19917;-65
2022/09/19 03:28:21;;;;;;;;;;;;;;;;;;5087001;28;19922;-65
2022/09/19 03:30:46;;;;;;;;;;;;;;;;;;5070959;28;19916;-65
2022/09/19 03:33:15;;;;;;;;;;;;;;;;;;5078572;28;20010;-66
2022/09/19 03:35:40;;;;;;;;;;;;;;;;;;5082879;28;19920;-65
2022/09/19 03:38:06;;;;;;;;;;;;;;;;;;5061024;28;20382;-65
2022/09/19 03:40:32;;;;;;;;;;;;;;;;;;5059375;28;19913;-65
2022/09/19 03:42:57;;;;;;;;;;;;;;;;;;5084711;28;19921;-65
2022/09/19 03:45:22;;;;;;;;;;;;;;;;;;5078689;28;19923;-66
2022/09/19 03:47:47;;;;;;;;;;;;;;;;;;5082527;28;19916;-65
2022/09/19 03:50:12;;;;;;;;;;;;;;;;;;5055528;28;19913;-65
2022/09/19 03:52:37;;;;;;;;;;;;;;;;;;5084156;28;20433;-65
2022/09/19 03:55:03;;;;;;;;;;;;;;;;;;5081963;28;20391;-65
2022/09/19 03:57:28;;;;;;;;;;;;;;;;;;5078955;28;20011;-62
2022/09/19 03:59:53;;;;;;;;;;;;;;;;;;5072178;28;20369;-65
2022/09/19 04:02:18;;;;;;;;;;;;;;;;;;5060863;28;19912;-64
2022/09/19 04:04:43;;;;;;;;;;;;;;;;;;5061112;28;19916;-65
2022/09/19 04:07:08;;;;;;;;;;;;;;;;;;5082148;28;19924;-65
2022/09/19 04:09:34;;;;;;;;;;;;;;;;;;5086695;28;19918;-66
2022/09/19 04:12:00;;;;;;;;;;;;;;;;;;5076514;28;20025;-64
2022/09/19 04:14:26;;;;;;;;;;;;;;;;;;5060525;28;19918;-64
2022/09/19 04:16:51;;;;;;;;;;;;;;;;;;5072405;28;19920;-65
2022/09/19 04:19:16;;;;;;;;;;;;;;;;;;5074543;28;19922;-65
2022/09/19 04:21:41;;;;;;;;;;;;;;;;;;5078061;28;19919;-65
2022/09/19 04:24:07;;;;;;;;;;;;;;;;;;5053719;28;20757;-65
2022/09/19 04:26:32;;;;;;;;;;;;;;;;;;5078299;28;19912;-65
2022/09/19 04:28:57;;;;;;;;;;;;;;;;;;5081989;28;19916;-65
2022/09/19 04:31:23;;;;;;;;;;;;;;;;;;5076808;28;19920;-65
2022/09/19 04:33:48;;;;;;;;;;;;;;;;;;5075375;28;19913;-65
2022/09/19 04:36:14;;;;;;;;;;;;;;;;;;5078332;28;19912;-65
2022/09/19 04:38:39;;;;;;;;;;;;;;;;;;5059432;28;20352;-65
2022/09/19 04:41:04;;;;;;;;;;;;;;;;;;5076070;28;19912;-65
2022/09/19 04:43:30;;;;;;;;;;;;;;;;;;5075618;28;19912;-65
2022/09/19 04:45:55;;;;;;;;;;;;;;;;;;5059557;28;19919;-65
2022/09/19 04:48:20;;;;;;;;;;;;;;;;;;5073684;28;19912;-64
2022/09/19 04:50:47;;;;;;;;;;;;;;;;;;5076731;28;20369;-64
2022/09/19 04:53:13;;;;;;;;;;;;;;;;;;5078425;28;19963;-64
2022/09/19 04:55:38;;;;;;;;;;;;;;;;;;5057287;28;19959;-64
2022/09/19 04:58:04;;;;;;;;;;;;;;;;;;5073726;28;20376;-64
2022/09/19 05:00:39;;;;;;;;;;;;;;;;;;5081465;28;19923;-64
2022/09/19 05:03:07;;;;;;;;;;;;;;;;;;5081979;28;19920;-65
2022/09/19 05:05:33;;;;;;;;;;;;;;;;;;5060358;28;19912;-65
2022/09/19 05:07:58;;;;;;;;;;;;;;;;;;5076631;28;19928;-64
2022/09/19 05:10:23;;;;;;;;;;;;;;;;;;5057489;28;20150;-65
2022/09/19 05:12:48;;;;;;;;;;;;;;;;;;5077950;28;20077;-64
2022/09/19 05:15:13;;;;;;;;;;;;;;;;;;5077445;28;19916;-65
2022/09/19 05:17:38;;;;;;;;;;;;;;;;;;5049134;28;20126;-65
2022/09/19 05:20:04;;;;;;;;;;;;;;;;;;5057008;28;19958;-65
2022/09/19 05:22:29;;;;;;;;;;;;;;;;;;5060130;28;19928;-65
2022/09/19 05:24:54;;;;;;;;;;;;;;;;;;5054164;28;19908;-65
2022/09/19 05:27:19;;;;;;;;;;;;;;;;;;5059822;28;20027;-66
2022/09/19 05:29:45;;;;;;;;;;;;;;;;;;5057735;28;19975;-64
2022/09/19 05:32:10;;;;;;;;;;;;;;;;;;5058277;28;19924;-64
2022/09/19 05:34:35;;;;;;;;;;;;;;;;;;5065317;28;20355;-64
2022/09/19 05:37:00;;;;;;;;;;;;;;;;;;5059340;28;19935;-64
2022/09/19 05:39:25;;;;;;;;;;;;;;;;;;5056669;28;20011;-64
2022/09/19 05:41:50;;;;;;;;;;;;;;;;;;5056267;28;19912;-64
2022/09/19 05:44:16;;;;;;;;;;;;;;;;;;5045268;28;19920;-64
2022/09/19 05:46:42;;;;;;;;;;;;;;;;;;5033641;28;19927;-63
2022/09/19 05:49:07;;;;;;;;;;;;;;;;;;5038461;28;19917;-63
2022/09/19 05:51:32;;;;;;;;;;;;;;;;;;5046493;28;19964;-64
2022/09/19 05:53:57;;;;;;;;;;;;;;;;;;5056471;28;20371;-64
2022/09/19 05:56:22;;;;;;;;;;;;;;;;;;5044214;28;20007;-65
2022/09/19 05:58:47;;;;;;;;;;;;;;;;;;5059016;28;19913;-65
2022/09/19 06:01:13;;;;;;;;;;;;;;;;;;5038596;28;20502;-65
2022/09/19 06:03:38;;;;;;;;;;;;;;;;;;5058112;28;19962;-65
2022/09/19 06:06:03;;;;;;;;;;;;;;;;;;5056008;28;19920;-65
2022/09/19 06:08:30;;;;;;;;;;;;;;;;;;5045241;28;20122;-65
2022/09/19 06:10:55;;;;;;;;;;;;;;;;;;5057767;28;19909;-65
2022/09/19 06:13:20;;;;;;;;;;;;;;;;;;5066455;28;20003;-65
2022/09/19 06:15:45;;;;;;;;;;;;;;;;;;5069893;28;19923;-65
2022/09/19 06:18:11;;;;;;;;;;;;;;;;;;5073447;28;20487;-64
2022/09/19 06:20:37;;;;;;;;;;;;;;;;;;5058661;28;19916;-65
2022/09/19 06:23:02;;;;;;;;;;;;;;;;;;5059148;28;19912;-65
2022/09/19 06:25:28;;;;;;;;;;;;;;;;;;5076593;28;20007;-64
2022/09/19 06:27:53;;;;;;;;;;;;;;;;;;5083025;28;19944;-65
2022/09/19 06:30:18;;;;;;;;;;;;;;;;;;5057678;28;19948;-65
2022/09/19 06:32:43;;;;;;;;;;;;;;;;;;5071845;28;19912;-65
2022/09/19 06:35:09;;;;;;;;;;;;;;;;;;5066680;28;19912;-65
2022/09/19 06:37:34;;;;;;;;;;;;;;;;;;5071905;28;20377;-65
2022/09/19 06:39:59;;;;;;;;;;;;;;;;;;5069436;28;20340;-65
2022/09/19 06:42:25;;;;;;;;;;;;;;;;;;5060697;28;19955;-65
2022/09/19 06:44:50;;;;;;;;;;;;;;;;;;5065616;28;20267;-65
2022/09/19 06:47:16;;;;;;;;;;;;;;;;;;5055977;28;19913;-65
2022/09/19 06:49:41;;;;;;;;;;;;;;;;;;5083562;28;19908;-65
2022/09/19 06:52:06;;;;;;;;;;;;;;;;;;5084264;28;21585;-64
2022/09/19 06:54:31;;;;;;;;;;;;;;;;;;5073555;28;19935;-63
2022/09/19 06:56:56;;;;;;;;;;;;;;;;;;5083011;28;21554;-65
2022/09/19 06:59:21;;;;;;;;;;;;;;;;;;5081067;28;19912;-64
2022/09/19 07:01:47;;;;;;;;;;;;;;;;;;5075487;28;20084;-65
2022/09/19 07:04:12;;;;;;;;;;;;;;;;;;5074292;28;19912;-65
2022/09/19 07:06:37;;;;;;;;;;;;;;;;;;5056135;28;20288;-65
2022/09/19 07:09:02;;;;;;;;;;;;;;;;;;5090113;28;19908;-65
2022/09/19 07:11:27;;;;;;;;;;;;;;;;;;5076580;28;19951;-65
2022/09/19 07:13:52;;;;;;;;;;;;;;;;;;5060464;28;19920;-65
2022/09/19 07:16:18;;;;;;;;;;;;;;;;;;5071446;28;19920;-64
2022/09/19 07:18:43;;;;;;;;;;;;;;;;;;5083296;28;19920;-66
2022/09/19 07:21:08;;;;;;;;;;;;;;;;;;5078534;28;19919;-65
2022/09/19 07:23:33;;;;;;;;;;;;;;;;;;5072004;28;19912;-65
2022/09/19 07:26:00;;;;;;;;;;;;;;;;;;5075734;28;20128;-66
2022/09/19 07:28:26;;;;;;;;;;;;;;;;;;5071053;28;19920;-64
2022/09/19 07:30:51;;;;;;;;;;;;;;;;;;5067643;28;20384;-65
2022/09/19 07:33:17;;;;;;;;;;;;;;;;;;5053939;28;20330;-64
2022/09/19 07:35:42;;;;;;;;;;;;;;;;;;5070092;28;19982;-64
2022/09/19 07:38:07;;;;;;;;;;;;;;;;;;5072666;28;19920;-64
2022/09/19 07:40:33;;;;;;;;;;;;;;;;;;5083299;28;19965;-64
2022/09/19 07:42:58;;;;;;;;;;;;;;;;;;5085015;28;19918;-65
2022/09/19 07:45:23;;;;;;;;;;;;;;;;;;5088992;28;19916;-65
2022/09/19 07:47:48;;;;;;;;;;;;;;;;;;5063222;28;19912;-64
2022/09/19 07:50:14;;;;;;;;;;;;;;;;;;5080866;28;19920;-65
2022/09/19 07:52:40;;;;;;;;;;;;;;;;;;5062455;28;20008;-65
2022/09/19 07:55:05;;;;;;;;;;;;;;;;;;5060881;28;19919;-65
2022/09/19 07:57:30;;;;;;;;;;;;;;;;;;5089679;28;21615;-67
2022/09/19 07:59:55;;;;;;;;;;;;;;;;;;5056898;28;20321;-66
2022/09/19 08:02:20;;;;;;;;;;;;;;;;;;5074543;28;19917;-66
2022/09/19 08:04:46;;;;;;;;;;;;;;;;;;5057743;28;19918;-66
2022/09/19 08:07:11;;;;;;;;;;;;;;;;;;5088464;28;19920;-65
2022/09/19 08:09:37;;;;;;;;;;;;;;;;;;5094391;28;20006;-66
2022/09/19 08:12:02;;;;;;;;;;;;;;;;;;5093418;28;19985;-65
2022/09/19 08:14:27;;;;;;;;;;;;;;;;;;5092419;28;19939;-66
2022/09/19 08:16:53;;;;;;;;;;;;;;;;;;5079098;28;19974;-64
2022/09/19 08:19:18;;;;;;;;;;;;;;;;;;5048974;28;19919;-65
2022/09/19 08:21:43;;;;;;;;;;;;;;;;;;5061608;28;20344;-66
2022/09/19 08:24:08;;;;;;;;;;;;;;;;;;5051089;28;20752;-67
2022/09/19 08:26:33;;;;;;;;;;;;;;;;;;5045701;28;20308;-66
2022/09/19 08:28:58;;;;;;;;;;;;;;;;;;5037977;28;19913;-66
2022/09/19 08:31:24;;;;;;;;;;;;;;;;;;5050977;28;19913;-65
2022/09/19 08:33:49;;;;;;;;;;;;;;;;;;5067399;28;19921;-65
2022/09/19 08:36:16;;;;;;;;;;;;;;;;;;5047831;28;19912;-65
2022/09/19 08:38:41;;;;;;;;;;;;;;;;;;5054267;28;19959;-66
2022/09/19 08:41:07;;;;;;;;;;;;;;;;;;5059363;28;19958;-65
2022/09/19 08:43:32;;;;;;;;;;;;;;;;;;5055134;28;19913;-66
2022/09/19 08:45:57;;;;;;;;;;;;;;;;;;5048333;28;19913;-63
2022/09/19 08:48:23;;;;;;;;;;;;;;;;;;5057664;28;19935;-65
2022/09/19 08:50:48;;;;;;;;;;;;;;;;;;5035962;28;20288;-65
2022/09/19 08:53:13;;;;;;;;;;;;;;;;;;5060050;28;19919;-64
2022/09/19 08:55:38;;;;;;;;;;;;;;;;;;5050897;28;19935;-61
2022/09/19 08:58:03;;;;;;;;;;;;;;;;;;5066962;28;20008;-65
2022/09/19 09:00:30;;;;;;;;;;;;;;;;;;5053864;28;19916;-63
2022/09/19 09:02:55;;;;;;;;;;;;;;;;;;5056975;28;19936;-65
2022/09/19 09:05:20;;;;;;;;;;;;;;;;;;5054613;28;20288;-64
2022/09/19 09:07:45;;;;;;;;;;;;;;;;;;5074690;28;19909;-66
2022/09/19 09:10:11;;;;;;;;;;;;;;;;;;5052859;28;20237;-65
2022/09/19 09:12:36;;;;;;;;;;;;;;;;;;5037949;28;20373;-65
2022/09/19 09:15:02;;;;;;;;;;;;;;;;;;5043263;28;20008;-64
2022/09/19 09:17:27;;;;;;;;;;;;;;;;;;5061971;28;19966;-65
2022/09/19 09:19:52;;;;;;;;;;;;;;;;;;5083095;28;19998;-66
2022/09/19 09:22:18;;;;;;;;;;;;;;;;;;5081846;28;19920;-65
2022/09/19 09:24:43;;;;;;;;;;;;;;;;;;5086847;28;20369;-64
2022/09/19 09:27:08;;;;;;;;;;;;;;;;;;5083315;28;19954;-63
2022/09/19 09:29:33;;;;;;;;;;;;;;;;;;5080613;28;19916;-65
2022/09/19 09:31:58;;;;;;;;;;;;;;;;;;5075146;28;19912;-64
2022/09/19 09:34:25;;;;;;;;;;;;;;;;;;5057155;28;19913;-64
2022/09/19 09:36:51;;;;;;;;;;;;;;;;;;5080174;28;19962;-65
2022/09/19 09:39:16;;;;;;;;;;;;;;;;;;5074313;28;19916;-65
2022/09/19 09:41:45;;;;;;;;;;;;;;;;;;5070275;28;20387;-65
2022/09/19 09:44:12;;;;;;;;;;;;;;;;;;5077051;28;20019;-65
2022/09/19 09:46:38;;;;;;;;;;;;;;;;;;5054987;28;19916;-64
2022/09/19 09:49:03;;;;;;;;;;;;;;;;;;5075267;28;19916;-65
2022/09/19 09:51:28;;;;;;;;;;;;;;;;;;5073362;28;20281;-65
2022/09/19 09:53:53;;;;;;;;;;;;;;;;;;5073701;28;20929;-64
2022/09/19 09:56:19;;;;;;;;;;;;;;;;;;5075183;28;19916;-66
2022/09/19 09:58:44;;;;;;;;;;;;;;;;;;5075409;28;19931;-65
2022/09/19 10:03:53;;;;;;;;;;;;;;;;;;5075245;28;19935;-65
2022/09/19 10:06:18;;;;;;;;;;;;;;;;;;5074133;28;20388;-66
2022/09/19 10:08:43;;;;;;;;;;;;;;;;;;5086433;28;20034;-64
2022/09/19 10:11:09;;;;;;;;;;;;;;;;;;5078848;28;20268;-65
2022/09/19 10:13:38;;;;;;;;;;;;;;;;;;5088616;28;20029;-66
2022/09/19 10:16:03;;;;;;;;;;;;;;;;;;5082085;28;19965;-65
2022/09/19 10:18:28;;;;;;;;;;;;;;;;;;5082801;28;19928;-65
2022/09/19 10:20:53;;;;;;;;;;;;;;;;;;5077824;28;19913;-64
2022/09/19 10:23:23;;;;;;;;;;;;;;;;;;5067571;28;19918;-65
2022/09/19 10:25:48;;;;;;;;;;;;;;;;;;5076810;28;19916;-65
2022/09/19 10:28:13;;;;;;;;;;;;;;;;;;5093376;28;19919;-64
2022/09/19 10:30:41;;;;;;;;;;;;;;;;;;5093156;28;20364;-64
2022/09/19 10:33:06;;;;;;;;;;;;;;;;;;5081352;28;19916;-65
2022/09/19 10:35:31;;;;;;;;;;;;;;;;;;5059950;28;19924;-63
2022/09/19 10:37:57;;;;;;;;;;;;;;;;;;5081496;28;19932;-65
2022/09/19 10:40:25;;;;;;;;;;;;;;;;;;5071592;28;19913;-64
2022/09/19 10:42:50;;;;;;;;;;;;;;;;;;5072502;28;20007;-65
2022/09/19 10:45:15;;;;;;;;;;;;;;;;;;5055131;28;20015;-66
2022/09/19 10:47:41;;;;;;;;;;;;;;;;;;5076644;28;19912;-65
2022/09/19 10:50:06;;;;;;;;;;;;;;;;;;5098314;28;19908;-64
2022/09/19 10:52:33;;;;;;;;;;;;;;;;;;5078070;28;19919;-65
2022/09/19 10:54:59;;;;;;;;;;;;;;;;;;5078337;28;20094;-64
2022/09/19 10:57:24;;;;;;;;;;;;;;;;;;5078422;28;20487;-65
2022/09/19 10:59:49;;;;;;;;;;;;;;;;;;5092574;28;19915;-64
2022/09/19 11:02:14;;;;;;;;;;;;;;;;;;5066932;28;19912;-64
2022/09/19 11:04:41;;;;;;;;;;;;;;;;;;5061485;28;19921;-64
2022/09/19 11:07:06;;;;;;;;;;;;;;;;;;5079462;28;19927;-65
2022/09/19 11:09:32;;;;;;;;;;;;;;;;;;5082204;28;20372;-65
2022/09/19 11:11:59;;;;;;;;;;;;;;;;;;5071463;28;19920;-65
2022/09/19 11:14:28;;;;;;;;;;;;;;;;;;5080022;28;19957;-64
2022/09/19 11:16:58;;;;;;;;;;;;;;;;;;5057887;28;19935;-65
2022/09/19 11:19:26;;;;;;;;;;;;;;;;;;5059524;28;19919;-64
2022/09/19 11:21:52;;;;;;;;;;;;;;;;;;5049619;28;20007;-65
2022/09/19 11:24:17;;;;;;;;;;;;;;;;;;5064138;28;20004;-65
2022/09/19 11:26:42;;;;;;;;;;;;;;;;;;5048385;28;19920;-64
2022/09/19 11:29:07;;;;;;;;;;;;;;;;;;5046412;28;20214;-65
2022/09/19 11:31:32;;;;;;;;;;;;;;;;;;5051071;28;19912;-65
2022/09/19 11:33:57;;;;;;;;;;;;;;;;;;5049384;28;19913;-65
2022/09/19 11:36:23;;;;;;;;;;;;;;;;;;5050980;28;19965;-64
2022/09/19 11:38:48;;;;;;;;;;;;;;;;;;5053517;28;19924;-63
2022/09/19 11:41:13;;;;;;;;;;;;;;;;;;5048948;28;19924;-65
2022/09/19 11:43:43;;;;;;;;;;;;;;;;;;5049932;28;19916;-66
2022/09/19 11:46:08;;;;;;;;;;;;;;;;;;5060939;28;19916;-65
2022/09/19 11:48:33;;;;;;;;;;;;;;;;;;5050071;28;20291;-66
2022/09/19 11:50:59;;;;;;;;;;;;;;;;;;5059204;28;19912;-65
2022/09/19 11:53:28;;;;;;;;;;;;;;;;;;5051145;28;19929;-65
2022/09/19 11:55:56;;;;;;;;;;;;;;;;;;5054605;28;19913;-66
2022/09/19 11:58:22;;;;;;;;;;;;;;;;;;5057398;28;19917;-65
2022/09/19 12:00:50;;;;;;;;;;;;;;;;;;5054845;28;19912;-65
2022/09/19 12:03:16;;;;;;;;;;;;;;;;;;5048611;28;19913;-66
2022/09/19 12:05:41;;;;;;;;;;;;;;;;;;5049914;28;19921;-66
2022/09/19 12:08:07;;;;;;;;;;;;;;;;;;5064106;28;19921;-65
2022/09/19 12:10:32;;;;;;;;;;;;;;;;;;5061055;28;20349;-66
2022/09/19 12:12:58;;;;;;;;;;;;;;;;;;5052369;28;20329;-70
2022/09/19 12:15:23;;;;;;;;;;;;;;;;;;5063692;28;20114;-67
2022/09/19 12:17:50;;;;;;;;;;;;;;;;;;5053332;28;20007;-64
2022/09/19 12:20:16;;;;;;;;;;;;;;;;;;5043337;28;19958;-67
2022/09/19 12:22:41;;;;;;;;;;;;;;;;;;5043300;28;19920;-69
2022/09/19 12:25:08;;;;;;;;;;;;;;;;;;5056290;28;20046;-73
2022/09/19 12:27:33;;;;;;;;;;;;;;;;;;5063902;28;19923;-71
2022/09/19 12:29:59;;;;;;;;;;;;;;;;;;5037978;28;19913;-68
2022/09/19 12:32:24;;;;;;;;;;;;;;;;;;5065863;28;20000;-67
2022/09/19 12:34:50;;;;;;;;;;;;;;;;;;5058262;28;19919;-67
2022/09/19 12:37:15;;;;;;;;;;;;;;;;;;5058406;28;20293;-69
2022/09/19 12:39:40;;;;;;;;;;;;;;;;;;5040455;28;20448;-70
2022/09/19 12:42:09;;;;;;;;;;;;;;;;;;5038778;28;19913;-69
2022/09/19 12:44:34;;;;;;;;;;;;;;;;;;5059208;28;19960;-68
2022/09/19 12:47:01;;;;;;;;;;;;;;;;;;5053474;28;20029;-69
2022/09/19 12:49:28;;;;;;;;;;;;;;;;;;5058339;28;19913;-67
2022/09/19 12:51:53;;;;;;;;;;;;;;;;;;5042035;28;19909;-68
2022/09/19 12:54:19;;;;;;;;;;;;;;;;;;5043103;28;19912;-67
2022/09/19 12:56:44;;;;;;;;;;;;;;;;;;5043907;28;20303;-73
2022/09/19 12:59:09;;;;;;;;;;;;;;;;;;5065774;28;20447;-70
2022/09/19 13:01:35;;;;;;;;;;;;;;;;;;5064929;28;20376;-72
2022/09/19 13:04:02;;;;;;;;;;;;;;;;;;5047872;28;20028;-66
2022/09/19 13:06:27;;;;;;;;;;;;;;;;;;5061518;28;19913;-67
2022/09/19 13:08:52;;;;;;;;;;;;;;;;;;5047972;28;20387;-72
2022/09/19 13:11:21;;;;;;;;;;;;;;;;;;5064365;28;19927;-66
2022/09/19 13:13:50;;;;;;;;;;;;;;;;;;5063201;28;20376;-70
2022/09/19 13:16:16;;;;;;;;;;;;;;;;;;5059853;28;19950;-69
2022/09/19 13:24:11;;;;;;;;;;;;;;;;;;5058341;28;19924;-72
2022/09/19 13:26:37;;;;;;;;;;;;;;;;;;5059285;28;19913;-71
2022/09/19 13:29:02;;;;;;;;;;;;;;;;;;5059779;28;19919;-70
2022/09/19 13:31:28;;;;;;;;;;;;;;;;;;5058452;28;20937;-70
2022/09/19 13:33:53;;;;;;;;;;;;;;;;;;5055702;28;19928;-68
2022/09/19 13:36:18;;;;;;;;;;;;;;;;;;5059304;28;19928;-69
2022/09/19 13:38:44;;;;;;;;;;;;;;;;;;5065810;28;19923;-72
2022/09/19 13:41:09;;;;;;;;;;;;;;;;;;5053275;28;20047;-65
2022/09/19 13:43:35;;;;;;;;;;;;;;;;;;5053986;28;20050;-67
2022/09/19 13:46:00;;;;;;;;;;;;;;;;;;5050969;28;20272;-67
2022/09/19 13:48:25;;;;;;;;;;;;;;;;;;5047781;28;19919;-68
2022/09/19 13:50:50;;;;;;;;;;;;;;;;;;5059398;28;19920;-70
2022/09/19 13:53:16;;;;;;;;;;;;;;;;;;5050516;28;19941;-72
2022/09/19 13:55:41;;;;;;;;;;;;;;;;;;5060898;28;19913;-73
2022/09/19 13:58:07;;;;;;;;;;;;;;;;;;5061264;28;19918;-73
2022/09/19 14:00:38;;;;;;;;;;;;;;;;;;5053930;28;20614;-72
2022/09/19 14:03:03;;;;;;;;;;;;;;;;;;5047925;28;19924;-71
2022/09/19 14:05:28;;;;;;;;;;;;;;;;;;5052063;28;19913;-73
2022/09/19 14:07:53;;;;;;;;;;;;;;;;;;5052459;28;19917;-72
2022/09/19 14:10:18;;;;;;;;;;;;;;;;;;5046084;28;19920;-73
2022/09/19 14:12:46;;;;;;;;;;;;;;;;;;5048534;28;19962;-73
2022/09/19 14:15:11;;;;;;;;;;;;;;;;;;5048661;28;19912;-74
2022/09/19 14:17:36;;;;;;;;;;;;;;;;;;5055279;28;19973;-73
2022/09/19 14:20:05;;;;;;;;;;;;;;;;;;5052077;28;19920;-74
2022/09/19 14:22:35;;;;;;;;;;;;;;;;;;5053639;28;23122;-73
2022/09/19 14:25:03;;;;;;;;;;;;;;;;;;5053977;28;20335;-73
2022/09/19 14:27:28;;;;;;;;;;;;;;;;;;5055085;28;19966;-73
2022/09/19 14:29:53;;;;;;;;;;;;;;;;;;5075557;28;19912;-78
2022/09/19 14:32:19;;;;;;;;;;;;;;;;;;5068484;28;19921;-68
2022/09/19 14:34:45;;;;;;;;;;;;;;;;;;5059837;28;19999;-66
2022/09/19 14:37:12;;;;;;;;;;;;;;;;;;5068671;28;19969;-66
2022/09/19 14:39:37;;;;;;;;;;;;;;;;;;5085563;28;20352;-65
2022/09/19 14:42:02;;;;;;;;;;;;;;;;;;5074732;28;19952;-64
2022/09/19 14:44:28;;;;;;;;;;;;;;;;;;5077617;28;20348;-65
2022/09/19 14:46:53;;;;;;;;;;;;;;;;;;5061091;28;19920;-63
2022/09/19 14:49:18;;;;;;;;;;;;;;;;;;5055828;28;20447;-63
2022/09/19 14:51:44;;;;;;;;;;;;;;;;;;5086830;28;19920;-65
2022/09/19 14:54:10;;;;;;;;;;;;;;;;;;5073710;28;20369;-65
2022/09/19 14:56:36;;;;;;;;;;;;;;;;;;5084506;28;19914;-65
2022/09/19 14:59:02;;;;;;;;;;;;;;;;;;5071011;28;20361;-65
2022/09/19 15:01:27;;;;;;;;;;;;;;;;;;5059644;28;19916;-65
2022/09/19 15:03:52;;;;;;;;;;;;;;;;;;5075512;28;20011;-65
2022/09/19 15:06:18;;;;;;;;;;;;;;;;;;5079267;28;19912;-65
2022/09/19 15:08:43;;;;;;;;;;;;;;;;;;5073931;28;19916;-72
2022/09/19 15:11:09;;;;;;;;;;;;;;;;;;5073569;28;19919;-64
2022/09/19 15:13:34;;;;;;;;;;;;;;;;;;5075568;28;19908;-64
2022/09/19 15:15:59;;;;;;;;;;;;;;;;;;5085276;28;19920;-64
2022/09/19 15:18:24;;;;;;;;;;;;;;;;;;5076091;28;19924;-64
2022/09/19 15:20:49;;;;;;;;;;;;;;;;;;5078607;28;19955;-65
2022/09/19 15:23:14;;;;;;;;;;;;;;;;;;5069993;28;19924;-63
2022/09/19 15:25:40;;;;;;;;;;;;;;;;;;5085084;28;19927;-65
2022/09/19 15:28:06;;;;;;;;;;;;;;;;;;5083261;28;19935;-64
2022/09/19 15:30:31;;;;;;;;;;;;;;;;;;5070462;28;20351;-64
2022/09/19 15:32:57;;;;;;;;;;;;;;;;;;5081719;28;20001;-65
2022/09/19 15:35:22;;;;;;;;;;;;;;;;;;5081791;28;19938;-65
2022/09/19 15:37:47;;;;;;;;;;;;;;;;;;5055780;28;20142;-64
2022/09/19 15:40:12;;;;;;;;;;;;;;;;;;5061062;28;19916;-65
2022/09/19 15:42:37;;;;;;;;;;;;;;;;;;5074506;28;19928;-64
2022/09/19 15:45:02;;;;;;;;;;;;;;;;;;5058110;28;20352;-64
2022/09/19 15:47:27;;;;;;;;;;;;;;;;;;5065956;28;19920;-63
2022/09/19 15:49:53;;;;;;;;;;;;;;;;;;5071539;28;19912;-64
2022/09/19 15:52:18;;;;;;;;;;;;;;;;;;5085041;28;19908;-62
2022/09/19 15:54:43;;;;;;;;;;;;;;;;;;5075563;28;20042;-63
2022/09/19 15:57:08;;;;;;;;;;;;;;;;;;5057728;28;19916;-63
2022/09/19 15:59:33;;;;;;;;;;;;;;;;;;5076133;28;19967;-63
2022/09/19 16:02:04;;;;;;;;;;;;;;;;;;5078817;28;19923;-63
2022/09/19 16:04:30;;;;;;;;;;;;;;;;;;5090517;28;19965;-63
2022/09/19 16:09:39;;;;;;;;;;;;;;;;;;5087661;28;20347;-63
2022/09/19 16:12:04;;;;;;;;;;;;;;;;;;5065118;28;20372;-63
2022/09/19 16:14:30;;;;;;;;;;;;;;;;;;5083261;28;19959;-62
2022/09/19 16:16:55;;;;;;;;;;;;;;;;;;5067292;28;19923;-62
2022/09/19 16:19:21;;;;;;;;;;;;;;;;;;5057468;28;20356;-63
2022/09/19 16:21:46;;;;;;;;;;;;;;;;;;5083800;28;19913;-63
2022/09/19 16:24:11;;;;;;;;;;;;;;;;;;5088522;28;19934;-62
2022/09/19 16:26:37;;;;;;;;;;;;;;;;;;5079447;28;19934;-65
2022/09/19 16:29:02;;;;;;;;;;;;;;;;;;5083590;28;19912;-62
2022/09/19 16:31:27;;;;;;;;;;;;;;;;;;5082860;28;20337;-63
2022/09/19 16:33:52;;;;;;;;;;;;;;;;;;5059968;28;19916;-63
2022/09/19 16:36:18;;;;;;;;;;;;;;;;;;5081207;28;20364;-62
2022/09/19 16:38:43;;;;;;;;;;;;;;;;;;5074107;28;20410;-67
2022/09/19 16:41:08;;;;;;;;;;;;;;;;;;5077208;28;20059;-69
2022/09/19 16:43:33;;;;;;;;;;;;;;;;;;5070321;28;19912;-69
2022/09/19 16:45:58;;;;;;;;;;;;;;;;;;5081489;28;19978;-69
2022/09/19 16:48:24;;;;;;;;;;;;;;;;;;5085603;28;19928;-68
2022/09/19 16:50:49;;;;;;;;;;;;;;;;;;5068727;28;20356;-71